Terminal Aerodrome Forecast
Issued by NWS

Home | Current Version | Previous Version | Graphics & Text | Print | Product List | Glossary On
Versions: 1 2 3 4 5 6 7 8 9 10 11 12 13 14 15 16 17 18 19 20 21 22
000
FTUS43 KABR 111059 AAA
TAFATY
TAF AMD
KATY 111059Z 1111/1206 30018G27KT P6SM BKN025 OVC060
      TEMPO 1111/1112 2SM -SN BR OVC020
     FM111200 32020G30KT P6SM VCSH OVC015
     FM120000 34014G23KT P6SM SCT020
     FM120500 33009KT P6SM SCT080=

USA.gov is the U.S. government's official web portal to all federal, state and local government web resources and services.